sensor_id;sensor_type;location;lat;lon;timestamp;temperature;humidity
35240;DHT22;21376;50.954;4.716;2024-03-23T00:53:48;7.80;99.90
35240;DHT22;21376;50.954;4.716;2024-03-23T00:56:16;7.90;99.90
35240;DHT22;21376;50.954;4.716;2024-03-23T00:58:42;7.70;99.90
35240;DHT22;21376;50.954;4.716;2024-03-23T01:01:09;7.80;99.90
35240;DHT22;21376;50.954;4.716;2024-03-23T01:03:35;7.60;99.90
35240;DHT22;21376;50.954;4.716;2024-03-23T01:06:03;7.60;99.90
35240;DHT22;21376;50.954;4.716;2024-03-23T01:08:30;7.70;99.90
35240;DHT22;21376;50.954;4.716;2024-03-23T01:11:00;7.40;99.90
35240;DHT22;21376;50.954;4.716;2024-03-23T01:13:28;7.20;99.90
35240;DHT22;21376;50.954;4.716;2024-03-23T01:15:55;7.40;99.90
35240;DHT22;21376;50.954;4.716;2024-03-23T01:18:24;7.50;99.90
35240;DHT22;21376;50.954;4.716;2024-03-23T01:20:52;7.50;99.90
35240;DHT22;21376;50.954;4.716;2024-03-23T01:23:18;7.50;99.90
35240;DHT22;21376;50.954;4.716;2024-03-23T01:25:52;7.70;99.90
35240;DHT22;21376;50.954;4.716;2024-03-23T01:28:21;7.70;99.90
35240;DHT22;21376;50.954;4.716;2024-03-23T01:30:48;7.70;99.90
35240;DHT22;21376;50.954;4.716;2024-03-23T01:33:14;7.50;99.90
35240;DHT22;21376;50.954;4.716;2024-03-23T01:35:40;7.50;99.90
35240;DHT22;21376;50.954;4.716;2024-03-23T01:38:06;7.50;99.90
35240;DHT22;21376;50.954;4.716;2024-03-23T01:40:37;7.50;99.90
35240;DHT22;21376;50.954;4.716;2024-03-23T01:43:07;7.70;99.90
35240;DHT22;21376;50.954;4.716;2024-03-23T01:45:34;7.80;99.90
35240;DHT22;21376;50.954;4.716;2024-03-23T01:48:01;7.50;99.90
35240;DHT22;21376;50.954;4.716;2024-03-23T01:50:30;7.10;99.90
35240;DHT22;21376;50.954;4.716;2024-03-23T01:53:02;6.80;99.90
35240;DHT22;21376;50.954;4.716;2024-03-23T01:55:33;6.80;99.90
35240;DHT22;21376;50.954;4.716;2024-03-23T01:57:59;6.90;99.90
35240;DHT22;21376;50.954;4.716;2024-03-23T02:00:25;7.10;99.90
35240;DHT22;21376;50.954;4.716;2024-03-23T02:02:52;7.20;99.90
35240;DHT22;21376;50.954;4.716;2024-03-23T02:05:18;7.20;99.90
35240;DHT22;21376;50.954;4.716;2024-03-23T02:07:46;7.20;99.90
35240;DHT22;21376;50.954;4.716;2024-03-23T02:10:12;7.20;99.90
35240;DHT22;21376;50.954;4.716;2024-03-23T02:12:40;7.20;99.90
35240;DHT22;21376;50.954;4.716;2024-03-23T02:15:07;7.20;99.90
35240;DHT22;21376;50.954;4.716;2024-03-23T02:17:34;7.40;99.90
35240;DHT22;21376;50.954;4.716;2024-03-23T02:20:01;7.30;99.90
35240;DHT22;21376;50.954;4.716;2024-03-23T02:22:37;7.00;99.90
35240;DHT22;21376;50.954;4.716;2024-03-23T02:25:06;7.00;99.90
35240;DHT22;21376;50.954;4.716;2024-03-23T02:27:34;7.10;99.90
35240;DHT22;21376;50.954;4.716;2024-03-23T02:30:02;7.20;99.90
35240;DHT22;21376;50.954;4.716;2024-03-23T02:32:29;7.10;99.90
35240;DHT22;21376;50.954;4.716;2024-03-23T02:34:55;7.00;99.90
35240;DHT22;21376;50.954;4.716;2024-03-23T02:37:21;7.10;99.90
35240;DHT22;21376;50.954;4.716;2024-03-23T02:39:46;7.20;99.90
35240;DHT22;21376;50.954;4.716;2024-03-23T02:42:12;7.30;99.90
35240;DHT22;21376;50.954;4.716;2024-03-23T02:44:38;7.40;99.90
35240;DHT22;21376;50.954;4.716;2024-03-23T02:47:04;7.40;99.90
35240;DHT22;21376;50.954;4.716;2024-03-23T02:49:30;7.50;99.90
35240;DHT22;21376;50.954;4.716;2024-03-23T02:51:59;7.40;99.90
35240;DHT22;21376;50.954;4.716;2024-03-23T02:54:25;7.40;99.90
35240;DHT22;21376;50.954;4.716;2024-03-23T02:56:51;7.40;99.90
35240;DHT22;21376;50.954;4.716;2024-03-23T02:59:18;7.30;99.90
35240;DHT22;21376;50.954;4.716;2024-03-23T03:01:46;7.50;99.90
35240;DHT22;21376;50.954;4.716;2024-03-23T03:04:13;7.50;99.90
35240;DHT22;21376;50.954;4.716;2024-03-23T03:06:39;7.50;99.90
35240;DHT22;21376;50.954;4.716;2024-03-23T03:09:09;7.40;99.90
35240;DHT22;21376;50.954;4.716;2024-03-23T03:11:35;7.40;99.90
35240;DHT22;21376;50.954;4.716;2024-03-23T03:14:03;7.60;99.90
35240;DHT22;21376;50.954;4.716;2024-03-23T03:16:32;7.60;99.90
35240;DHT22;21376;50.954;4.716;2024-03-23T03:19:01;7.60;99.90
35240;DHT22;21376;50.954;4.716;2024-03-23T03:21:28;7.70;99.90
35240;DHT22;21376;50.954;4.716;2024-03-23T03:23:54;7.70;99.90
35240;DHT22;21376;50.954;4.716;2024-03-23T03:26:28;7.60;99.90
35240;DHT22;21376;50.954;4.716;2024-03-23T03:28:55;7.80;99.90
35240;DHT22;21376;50.954;4.716;2024-03-23T03:31:21;7.80;99.90
35240;DHT22;21376;50.954;4.716;2024-03-23T03:33:51;7.70;99.90
35240;DHT22;21376;50.954;4.716;2024-03-23T03:36:18;7.60;99.90
35240;DHT22;21376;50.954;4.716;2024-03-23T03:38:44;7.70;99.90
35240;DHT22;21376;50.954;4.716;2024-03-23T03:41:09;7.80;99.90
35240;DHT22;21376;50.954;4.716;2024-03-23T03:43:35;7.70;99.90
35240;DHT22;21376;50.954;4.716;2024-03-23T03:46:02;7.80;99.90
35240;DHT22;21376;50.954;4.716;2024-03-23T03:48:28;7.70;99.90
35240;DHT22;21376;50.954;4.716;2024-03-23T03:50:54;7.80;99.90
35240;DHT22;21376;50.954;4.716;2024-03-23T03:53:23;7.80;99.90
35240;DHT22;21376;50.954;4.716;2024-03-23T03:55:49;7.80;99.90
35240;DHT22;21376;50.954;4.716;2024-03-23T03:58:17;7.80;99.90
35240;DHT22;21376;50.954;4.716;2024-03-23T04:00:44;7.90;99.90
35240;DHT22;21376;50.954;4.716;2024-03-23T04:03:12;7.80;99.90
35240;DHT22;21376;50.954;4.716;2024-03-23T04:05:41;7.80;99.90
35240;DHT22;21376;50.954;4.716;2024-03-23T04:08:09;7.80;99.90
35240;DHT22;21376;50.954;4.716;2024-03-23T04:10:36;7.70;99.90
35240;DHT22;21376;50.954;4.716;2024-03-23T04:13:02;7.70;99.90
35240;DHT22;21376;50.954;4.716;2024-03-23T04:15:31;7.70;99.90
35240;DHT22;21376;50.954;4.716;2024-03-23T04:17:58;7.60;99.90
35240;DHT22;21376;50.954;4.716;2024-03-23T04:20:25;7.60;99.90
35240;DHT22;21376;50.954;4.716;2024-03-23T04:22:51;7.40;99.90
35240;DHT22;21376;50.954;4.716;2024-03-23T04:25:17;7.20;99.90
35240;DHT22;21376;50.954;4.716;2024-03-23T04:27:46;7.10;99.90
35240;DHT22;21376;50.954;4.716;2024-03-23T04:30:12;7.20;99.90
35240;DHT22;21376;50.954;4.716;2024-03-23T04:32:38;7.10;99.90
35240;DHT22;21376;50.954;4.716;2024-03-23T04:35:06;7.00;99.90
35240;DHT22;21376;50.954;4.716;2024-03-23T04:37:36;6.90;99.90
35240;DHT22;21376;50.954;4.716;2024-03-23T04:40:06;7.00;99.90
35240;DHT22;21376;50.954;4.716;2024-03-23T04:42:36;7.00;99.90
35240;DHT22;21376;50.954;4.716;2024-03-23T04:45:03;7.10;99.90
35240;DHT22;21376;50.954;4.716;2024-03-23T04:47:29;7.00;99.90
35240;DHT22;21376;50.954;4.716;2024-03-23T04:49:55;7.30;99.90
35240;DHT22;21376;50.954;4.716;2024-03-23T04:52:21;7.30;99.90
35240;DHT22;21376;50.954;4.716;2024-03-23T04:54:52;7.20;99.90
35240;DHT22;21376;50.954;4.716;2024-03-23T04:57:20;7.30;99.90
35240;DHT22;21376;50.954;4.716;2024-03-23T04:59:48;7.40;99.90
35240;DHT22;21376;50.954;4.716;2024-03-23T05:02:14;7.40;99.90
35240;DHT22;21376;50.954;4.716;2024-03-23T05:04:44;7.40;99.90
35240;DHT22;21376;50.954;4.716;2024-03-23T05:07:09;7.30;99.90
35240;DHT22;21376;50.954;4.716;2024-03-23T05:09:35;7.30;99.90
35240;DHT22;21376;50.954;4.716;2024-03-23T05:12:01;7.20;99.90
35240;DHT22;21376;50.954;4.716;2024-03-23T05:14:33;7.10;99.90
35240;DHT22;21376;50.954;4.716;2024-03-23T05:17:08;7.10;99.90
35240;DHT22;21376;50.954;4.716;2024-03-23T05:19:35;7.00;99.90
35240;DHT22;21376;50.954;4.716;2024-03-23T05:22:02;7.00;99.90
35240;DHT22;21376;50.954;4.716;2024-03-23T05:24:27;7.00;99.90
35240;DHT22;21376;50.954;4.716;2024-03-23T05:26:59;7.00;99.90
35240;DHT22;21376;50.954;4.716;2024-03-23T05:29:28;7.10;99.90
35240;DHT22;21376;50.954;4.716;2024-03-23T05:31:56;7.10;99.90
35240;DHT22;21376;50.954;4.716;2024-03-23T05:34:22;7.00;99.90
35240;DHT22;21376;50.954;4.716;2024-03-23T05:36:51;7.00;99.90
35240;DHT22;21376;50.954;4.716;2024-03-23T05:39:18;7.00;99.90
35240;DHT22;21376;50.954;4.716;2024-03-23T05:41:49;7.00;99.90
35240;DHT22;21376;50.954;4.716;2024-03-23T05:44:20;7.00;99.90
35240;DHT22;21376;50.954;4.716;2024-03-23T05:46:49;6.80;99.90
35240;DHT22;21376;50.954;4.716;2024-03-23T05:49:20;6.70;99.90
35240;DHT22;21376;50.954;4.716;2024-03-23T05:51:48;6.80;99.90
35240;DHT22;21376;50.954;4.716;2024-03-23T05:54:17;6.70;99.90
35240;DHT22;21376;50.954;4.716;2024-03-23T05:56:43;6.60;99.90
35240;DHT22;21376;50.954;4.716;2024-03-23T05:59:10;6.60;99.90
35240;DHT22;21376;50.954;4.716;2024-03-23T06:01:36;6.60;99.90
35240;DHT22;21376;50.954;4.716;2024-03-23T06:04:03;6.40;99.90
35240;DHT22;21376;50.954;4.716;2024-03-23T06:06:31;6.30;99.90
35240;DHT22;21376;50.954;4.716;2024-03-23T06:08:59;6.70;99.90
35240;DHT22;21376;50.954;4.716;2024-03-23T06:11:27;6.80;99.90
35240;DHT22;21376;50.954;4.716;2024-03-23T06:13:56;6.80;99.90
35240;DHT22;21376;50.954;4.716;2024-03-23T06:16:25;6.90;99.90
35240;DHT22;21376;50.954;4.716;2024-03-23T06:18:55;7.00;99.90
35240;DHT22;21376;50.954;4.716;2024-03-23T06:21:27;7.10;99.90
35240;DHT22;21376;50.954;4.716;2024-03-23T06:24:21;7.20;99.90
35240;DHT22;21376;50.954;4.716;2024-03-23T06:26:50;7.40;99.90
35240;DHT22;21376;50.954;4.716;2024-03-23T06:29:19;7.40;99.90
35240;DHT22;21376;50.954;4.716;2024-03-23T06:32:03;7.40;99.90
35240;DHT22;21376;50.954;4.716;2024-03-23T06:34:32;7.60;99.90
35240;DHT22;21376;50.954;4.716;2024-03-23T06:37:12;7.50;99.90
35240;DHT22;21376;50.954;4.716;2024-03-23T06:39:46;7.60;99.90
35240;DHT22;21376;50.954;4.716;2024-03-23T06:42:15;7.70;99.90
35240;DHT22;21376;50.954;4.716;2024-03-23T06:47:56;7.70;99.90
35240;DHT22;21376;50.954;4.716;2024-03-23T06:50:26;7.60;99.90
35240;DHT22;21376;50.954;4.716;2024-03-23T06:52:55;7.80;99.90
35240;DHT22;21376;50.954;4.716;2024-03-23T06:55:24;7.80;99.90
35240;DHT22;21376;50.954;4.716;2024-03-23T06:57:55;8.00;99.90
35240;DHT22;21376;50.954;4.716;2024-03-23T07:00:23;8.30;99.90
35240;DHT22;21376;50.954;4.716;2024-03-23T07:02:53;8.30;99.90
35240;DHT22;21376;50.954;4.716;2024-03-23T07:05:22;8.40;99.90
35240;DHT22;21376;50.954;4.716;2024-03-23T07:07:50;8.40;99.90
35240;DHT22;21376;50.954;4.716;2024-03-23T07:10:19;8.40;99.90
35240;DHT22;21376;50.954;4.716;2024-03-23T07:16:03;8.30;99.90
35240;DHT22;21376;50.954;4.716;2024-03-23T07:18:32;8.60;99.90
35240;DHT22;21376;50.954;4.716;2024-03-23T07:21:03;8.80;99.90
35240;DHT22;21376;50.954;4.716;2024-03-23T07:23:32;8.90;99.90
35240;DHT22;21376;50.954;4.716;2024-03-23T07:26:05;9.40;99.90
35240;DHT22;21376;50.954;4.716;2024-03-23T07:28:34;9.60;99.90
35240;DHT22;21376;50.954;4.716;2024-03-23T07:31:09;9.40;99.90
35240;DHT22;21376;50.954;4.716;2024-03-23T07:33:42;8.90;99.90
35240;DHT22;21376;50.954;4.716;2024-03-23T07:36:09;8.70;99.90
35240;DHT22;21376;50.954;4.716;2024-03-23T07:38:43;9.70;99.90
35240;DHT22;21376;50.954;4.716;2024-03-23T07:44:45;9.50;99.90
35240;DHT22;21376;50.954;4.716;2024-03-23T07:47:15;9.20;99.90
35240;DHT22;21376;50.954;4.716;2024-03-23T07:49:44;11.20;99.90
35240;DHT22;21376;50.954;4.716;2024-03-23T07:52:15;13.50;99.90
35240;DHT22;21376;50.954;4.716;2024-03-23T07:54:49;14.80;99.90
35240;DHT22;21376;50.954;4.716;2024-03-23T07:57:17;15.90;99.90
35240;DHT22;21376;50.954;4.716;2024-03-23T07:59:46;16.20;99.90
35240;DHT22;21376;50.954;4.716;2024-03-23T08:02:15;17.60;99.90
35240;DHT22;21376;50.954;4.716;2024-03-23T08:04:47;18.60;99.90
35240;DHT22;21376;50.954;4.716;2024-03-23T08:07:17;19.00;99.90
35240;DHT22;21376;50.954;4.716;2024-03-23T08:09:44;17.60;99.90
35240;DHT22;21376;50.954;4.716;2024-03-23T08:12:11;18.40;99.90
35240;DHT22;21376;50.954;4.716;2024-03-23T08:14:39;18.30;99.90
35240;DHT22;21376;50.954;4.716;2024-03-23T08:17:05;18.50;99.90
35240;DHT22;21376;50.954;4.716;2024-03-23T08:19:36;17.40;99.90
35240;DHT22;21376;50.954;4.716;2024-03-23T08:22:05;17.50;99.90
35240;DHT22;21376;50.954;4.716;2024-03-23T08:24:31;18.00;99.90
35240;DHT22;21376;50.954;4.716;2024-03-23T08:26:57;18.30;99.90
35240;DHT22;21376;50.954;4.716;2024-03-23T08:29:23;18.30;99.90
35240;DHT22;21376;50.954;4.716;2024-03-23T08:31:49;18.30;99.90
35240;DHT22;21376;50.954;4.716;2024-03-23T08:34:15;17.70;99.90
35240;DHT22;21376;50.954;4.716;2024-03-23T08:36:42;17.60;99.90
35240;DHT22;21376;50.954;4.716;2024-03-23T08:39:09;17.40;99.90
35240;DHT22;21376;50.954;4.716;2024-03-23T08:41:38;18.60;99.90
35240;DHT22;21376;50.954;4.716;2024-03-23T08:44:04;18.00;99.90
35240;DHT22;21376;50.954;4.716;2024-03-23T08:46:33;16.30;99.90
35240;DHT22;21376;50.954;4.716;2024-03-23T08:49:00;15.00;99.90
35240;DHT22;21376;50.954;4.716;2024-03-23T08:51:33;13.90;99.90
35240;DHT22;21376;50.954;4.716;2024-03-23T08:54:02;13.30;99.90
35240;DHT22;21376;50.954;4.716;2024-03-23T08:56:30;12.60;99.90
35240;DHT22;21376;50.954;4.716;2024-03-23T08:58:59;12.00;99.90
35240;DHT22;21376;50.954;4.716;2024-03-23T09:01:26;11.50;99.90
35240;DHT22;21376;50.954;4.716;2024-03-23T09:03:52;11.20;99.90
35240;DHT22;21376;50.954;4.716;2024-03-23T09:06:18;10.90;99.90
35240;DHT22;21376;50.954;4.716;2024-03-23T09:08:47;10.20;99.90
35240;DHT22;21376;50.954;4.716;2024-03-23T09:11:15;9.50;99.90
35240;DHT22;21376;50.954;4.716;2024-03-23T09:13:44;9.20;99.90
35240;DHT22;21376;50.954;4.716;2024-03-23T09:16:13;9.80;99.90
35240;DHT22;21376;50.954;4.716;2024-03-23T09:18:42;11.40;99.90
35240;DHT22;21376;50.954;4.716;2024-03-23T09:21:17;12.00;99.90
35240;DHT22;21376;50.954;4.716;2024-03-23T09:23:53;13.40;99.90
35240;DHT22;21376;50.954;4.716;2024-03-23T09:26:22;14.80;99.90
35240;DHT22;21376;50.954;4.716;2024-03-23T09:28:54;15.40;99.90
35240;DHT22;21376;50.954;4.716;2024-03-23T09:31:20;15.30;99.90
35240;DHT22;21376;50.954;4.716;2024-03-23T09:33:45;14.10;99.90
35240;DHT22;21376;50.954;4.716;2024-03-23T09:36:14;14.40;99.90
35240;DHT22;21376;50.954;4.716;2024-03-23T09:38:46;15.10;99.90
35240;DHT22;21376;50.954;4.716;2024-03-23T09:41:15;16.20;99.90
35240;DHT22;21376;50.954;4.716;2024-03-23T09:43:44;17.40;99.90
35240;DHT22;21376;50.954;4.716;2024-03-23T09:46:29;16.50;99.90
35240;DHT22;21376;50.954;4.716;2024-03-23T09:49:09;16.00;99.90
35240;DHT22;21376;50.954;4.716;2024-03-23T09:51:38;14.50;99.90
35240;DHT22;21376;50.954;4.716;2024-03-23T09:54:20;14.30;99.90
35240;DHT22;21376;50.954;4.716;2024-03-23T09:56:55;15.00;99.90
35240;DHT22;21376;50.954;4.716;2024-03-23T09:59:24;14.40;99.90
35240;DHT22;21376;50.954;4.716;2024-03-23T10:01:53;13.20;99.90
35240;DHT22;21376;50.954;4.716;2024-03-23T10:04:38;12.20;99.90
35240;DHT22;21376;50.954;4.716;2024-03-23T10:07:20;11.50;99.90
35240;DHT22;21376;50.954;4.716;2024-03-23T10:09:48;11.00;99.90
35240;DHT22;21376;50.954;4.716;2024-03-23T10:12:19;10.80;99.90
35240;DHT22;21376;50.954;4.716;2024-03-23T10:14:48;11.50;99.90
35240;DHT22;21376;50.954;4.716;2024-03-23T10:17:21;13.60;99.90
35240;DHT22;21376;50.954;4.716;2024-03-23T10:19:58;16.80;99.90
35240;DHT22;21376;50.954;4.716;2024-03-23T10:22:56;19.20;99.90
35240;DHT22;21376;50.954;4.716;2024-03-23T10:25:39;17.90;99.90
35240;DHT22;21376;50.954;4.716;2024-03-23T10:28:21;15.20;99.90
35240;DHT22;21376;50.954;4.716;2024-03-23T10:30:50;14.80;99.90
35240;DHT22;21376;50.954;4.716;2024-03-23T10:33:40;15.90;99.90
35240;DHT22;21376;50.954;4.716;2024-03-23T10:36:25;15.70;99.90
35240;DHT22;21376;50.954;4.716;2024-03-23T10:38:54;16.10;99.90
35240;DHT22;21376;50.954;4.716;2024-03-23T10:41:23;14.80;99.90
35240;DHT22;21376;50.954;4.716;2024-03-23T10:43:52;14.90;99.90
35240;DHT22;21376;50.954;4.716;2024-03-23T10:49:51;14.50;99.90
35240;DHT22;21376;50.954;4.716;2024-03-23T10:52:34;15.50;99.90
35240;DHT22;21376;50.954;4.716;2024-03-23T10:55:04;15.70;99.90
35240;DHT22;21376;50.954;4.716;2024-03-23T10:57:45;15.40;99.90
35240;DHT22;21376;50.954;4.716;2024-03-23T11:00:19;15.10;99.90
35240;DHT22;21376;50.954;4.716;2024-03-23T11:02:50;15.40;99.90
35240;DHT22;21376;50.954;4.716;2024-03-23T11:05:28;15.30;99.90
35240;DHT22;21376;50.954;4.716;2024-03-23T11:07:58;13.50;99.90
35240;DHT22;21376;50.954;4.716;2024-03-23T11:10:30;12.40;99.90
35240;DHT22;21376;50.954;4.716;2024-03-23T11:13:21;12.60;99.90
35240;DHT22;21376;50.954;4.716;2024-03-23T11:19:38;11.30;99.90
35240;DHT22;21376;50.954;4.716;2024-03-23T11:25:28;7.90;99.90
35240;DHT22;21376;50.954;4.716;2024-03-23T11:27:58;7.50;99.90
35240;DHT22;21376;50.954;4.716;2024-03-23T11:30:34;7.40;99.90
35240;DHT22;21376;50.954;4.716;2024-03-23T11:33:02;7.60;99.90
35240;DHT22;21376;50.954;4.716;2024-03-23T11:35:32;8.00;99.90
35240;DHT22;21376;50.954;4.716;2024-03-23T11:38:17;10.40;99.90
35240;DHT22;21376;50.954;4.716;2024-03-23T11:40:47;12.60;99.90
35240;DHT22;21376;50.954;4.716;2024-03-23T11:43:17;14.00;99.90
35240;DHT22;21376;50.954;4.716;2024-03-23T11:46:06;15.30;99.90
35240;DHT22;21376;50.954;4.716;2024-03-23T11:48:36;14.50;99.90
35240;DHT22;21376;50.954;4.716;2024-03-23T11:51:03;13.60;99.90
35240;DHT22;21376;50.954;4.716;2024-03-23T11:53:29;13.10;99.90
35240;DHT22;21376;50.954;4.716;2024-03-23T11:55:57;12.20;99.90
35240;DHT22;21376;50.954;4.716;2024-03-23T11:58:25;12.50;99.90
35240;DHT22;21376;50.954;4.716;2024-03-23T12:00:57;14.00;99.90
35240;DHT22;21376;50.954;4.716;2024-03-23T12:03:45;15.50;99.90
35240;DHT22;21376;50.954;4.716;2024-03-23T12:06:21;16.70;99.90
35240;DHT22;21376;50.954;4.716;2024-03-23T12:09:05;16.80;99.90
35240;DHT22;21376;50.954;4.716;2024-03-23T12:11:35;15.40;99.90
35240;DHT22;21376;50.954;4.716;2024-03-23T12:14:02;14.60;99.90
35240;DHT22;21376;50.954;4.716;2024-03-23T12:16:37;12.90;99.90
35240;DHT22;21376;50.954;4.716;2024-03-23T12:19:06;11.30;99.90
35240;DHT22;21376;50.954;4.716;2024-03-23T12:21:35;10.80;99.90
35240;DHT22;21376;50.954;4.716;2024-03-23T12:24:04;10.80;99.90
35240;DHT22;21376;50.954;4.716;2024-03-23T12:26:33;10.90;99.90
35240;DHT22;21376;50.954;4.716;2024-03-23T12:29:03;11.30;99.90
35240;DHT22;21376;50.954;4.716;2024-03-23T12:31:32;10.90;99.90
35240;DHT22;21376;50.954;4.716;2024-03-23T12:33:59;10.60;99.90
35240;DHT22;21376;50.954;4.716;2024-03-23T12:36:28;10.20;99.90
35240;DHT22;21376;50.954;4.716;2024-03-23T12:38:57;10.10;99.90
35240;DHT22;21376;50.954;4.716;2024-03-23T12:44:48;10.40;99.90
35240;DHT22;21376;50.954;4.716;2024-03-23T12:47:19;10.10;99.90
35240;DHT22;21376;50.954;4.716;2024-03-23T12:49:47;11.30;99.90
35240;DHT22;21376;50.954;4.716;2024-03-23T12:52:15;13.20;99.90
35240;DHT22;21376;50.954;4.716;2024-03-23T12:54:42;14.10;99.90
35240;DHT22;21376;50.954;4.716;2024-03-23T12:57:10;14.20;99.90
35240;DHT22;21376;50.954;4.716;2024-03-23T13:03:01;14.30;99.90
35240;DHT22;21376;50.954;4.716;2024-03-23T13:05:30;15.20;99.90
35240;DHT22;21376;50.954;4.716;2024-03-23T13:07:56;14.70;99.90
35240;DHT22;21376;50.954;4.716;2024-03-23T13:10:25;14.40;99.90
35240;DHT22;21376;50.954;4.716;2024-03-23T13:12:52;13.90;99.90
35240;DHT22;21376;50.954;4.716;2024-03-23T13:15:21;13.40;99.90
35240;DHT22;21376;50.954;4.716;2024-03-23T13:17:49;12.60;99.90
35240;DHT22;21376;50.954;4.716;2024-03-23T13:20:49;12.30;99.90
35240;DHT22;21376;50.954;4.716;2024-03-23T13:23:18;12.40;99.90
35240;DHT22;21376;50.954;4.716;2024-03-23T13:25:56;12.50;99.90
35240;DHT22;21376;50.954;4.716;2024-03-23T13:31:38;12.10;99.90
35240;DHT22;21376;50.954;4.716;2024-03-23T13:34:08;11.80;99.90
35240;DHT22;21376;50.954;4.716;2024-03-23T13:36:36;10.80;99.90
35240;DHT22;21376;50.954;4.716;2024-03-23T13:39:32;9.90;99.90
35240;DHT22;21376;50.954;4.716;2024-03-23T13:42:01;9.50;99.90
35240;DHT22;21376;50.954;4.716;2024-03-23T13:44:39;9.60;99.90
35240;DHT22;21376;50.954;4.716;2024-03-23T13:47:07;10.20;99.90
35240;DHT22;21376;50.954;4.716;2024-03-23T13:49:36;10.40;99.90
35240;DHT22;21376;50.954;4.716;2024-03-23T14:53:29;11.20;99.90
35240;DHT22;21376;50.954;4.716;2024-03-23T14:55:56;11.30;99.90
35240;DHT22;21376;50.954;4.716;2024-03-23T14:58:25;11.30;99.90
35240;DHT22;21376;50.954;4.716;2024-03-23T15:00:51;11.20;99.90
35240;DHT22;21376;50.954;4.716;2024-03-23T15:03:23;10.90;99.90
35240;DHT22;21376;50.954;4.716;2024-03-23T15:05:55;11.10;99.90
35240;DHT22;21376;50.954;4.716;2024-03-23T15:08:21;11.00;99.90
35240;DHT22;21376;50.954;4.716;2024-03-23T15:10:51;10.80;99.90
35240;DHT22;21376;50.954;4.716;2024-03-23T15:13:20;11.00;99.90
35240;DHT22;21376;50.954;4.716;2024-03-23T15:15:51;11.10;99.90
35240;DHT22;21376;50.954;4.716;2024-03-23T15:18:19;11.20;99.90
35240;DHT22;21376;50.954;4.716;2024-03-23T15:21:04;11.40;99.90
35240;DHT22;21376;50.954;4.716;2024-03-23T15:23:35;11.70;99.90
35240;DHT22;21376;50.954;4.716;2024-03-23T15:26:04;11.60;99.90
35240;DHT22;21376;50.954;4.716;2024-03-23T15:28:33;11.50;99.90
35240;DHT22;21376;50.954;4.716;2024-03-23T15:31:56;11.60;99.90
35240;DHT22;21376;50.954;4.716;2024-03-23T15:34:25;11.70;99.90
35240;DHT22;21376;50.954;4.716;2024-03-23T15:36:53;11.70;99.90
35240;DHT22;21376;50.954;4.716;2024-03-23T15:39:22;11.80;99.90
35240;DHT22;21376;50.954;4.716;2024-03-23T15:41:51;11.90;99.90
35240;DHT22;21376;50.954;4.716;2024-03-23T15:44:22;12.00;99.90
35240;DHT22;21376;50.954;4.716;2024-03-23T15:46:51;11.90;99.90
35240;DHT22;21376;50.954;4.716;2024-03-23T15:49:17;11.60;99.90
35240;DHT22;21376;50.954;4.716;2024-03-23T15:51:43;11.20;99.90
35240;DHT22;21376;50.954;4.716;2024-03-23T15:54:09;10.80;99.90
35240;DHT22;21376;50.954;4.716;2024-03-23T15:56:35;10.60;99.90
35240;DHT22;21376;50.954;4.716;2024-03-23T15:59:06;10.60;99.90
35240;DHT22;21376;50.954;4.716;2024-03-23T16:01:41;10.60;99.90
35240;DHT22;21376;50.954;4.716;2024-03-23T16:04:12;10.60;99.90
35240;DHT22;21376;50.954;4.716;2024-03-23T16:06:41;10.60;99.90
35240;DHT22;21376;50.954;4.716;2024-03-23T16:09:12;10.50;99.90
35240;DHT22;21376;50.954;4.716;2024-03-23T16:11:42;10.30;99.90
35240;DHT22;21376;50.954;4.716;2024-03-23T16:14:13;10.40;99.90
35240;DHT22;21376;50.954;4.716;2024-03-23T16:16:44;10.40;99.90
35240;DHT22;21376;50.954;4.716;2024-03-23T16:19:12;10.40;99.90
35240;DHT22;21376;50.954;4.716;2024-03-23T16:21:42;10.40;99.90
35240;DHT22;21376;50.954;4.716;2024-03-23T16:24:10;10.30;99.90
35240;DHT22;21376;50.954;4.716;2024-03-23T16:26:39;10.20;99.90
35240;DHT22;21376;50.954;4.716;2024-03-23T16:29:08;10.30;99.90
35240;DHT22;21376;50.954;4.716;2024-03-23T16:31:40;10.20;99.90
35240;DHT22;21376;50.954;4.716;2024-03-23T16:34:11;10.20;99.90
35240;DHT22;21376;50.954;4.716;2024-03-23T16:36:44;10.30;99.90
35240;DHT22;21376;50.954;4.716;2024-03-23T16:39:13;10.30;99.90
35240;DHT22;21376;50.954;4.716;2024-03-23T16:41:43;10.20;99.90
35240;DHT22;21376;50.954;4.716;2024-03-23T16:44:10;10.10;99.90
35240;DHT22;21376;50.954;4.716;2024-03-23T16:46:36;9.90;99.90
35240;DHT22;21376;50.954;4.716;2024-03-23T16:49:12;9.90;99.90
35240;DHT22;21376;50.954;4.716;2024-03-23T16:51:41;9.70;99.90
35240;DHT22;21376;50.954;4.716;2024-03-23T16:54:10;9.60;99.90
35240;DHT22;21376;50.954;4.716;2024-03-23T16:56:39;9.40;99.90
35240;DHT22;21376;50.954;4.716;2024-03-23T16:59:07;9.30;99.90
35240;DHT22;21376;50.954;4.716;2024-03-23T17:01:36;9.40;99.90
35240;DHT22;21376;50.954;4.716;2024-03-23T17:07:27;9.40;99.90
35240;DHT22;21376;50.954;4.716;2024-03-23T17:09:56;9.50;99.90
35240;DHT22;21376;50.954;4.716;2024-03-23T17:12:22;9.60;99.90
35240;DHT22;21376;50.954;4.716;2024-03-23T17:14:50;9.50;99.90
35240;DHT22;21376;50.954;4.716;2024-03-23T17:20:33;9.60;99.90
35240;DHT22;21376;50.954;4.716;2024-03-23T17:23:05;9.60;99.90
35240;DHT22;21376;50.954;4.716;2024-03-23T17:25:34;9.60;99.90
35240;DHT22;21376;50.954;4.716;2024-03-23T17:28:03;9.70;99.90
35240;DHT22;21376;50.954;4.716;2024-03-23T17:33:42;9.50;99.90
35240;DHT22;21376;50.954;4.716;2024-03-23T17:36:12;9.40;99.90
35240;DHT22;21376;50.954;4.716;2024-03-23T17:38:38;9.20;99.90
35240;DHT22;21376;50.954;4.716;2024-03-23T17:41:05;9.00;99.90
35240;DHT22;21376;50.954;4.716;2024-03-23T17:43:31;8.90;99.90
35240;DHT22;21376;50.954;4.716;2024-03-23T17:45:58;8.80;99.90
35240;DHT22;21376;50.954;4.716;2024-03-23T17:48:23;8.80;99.90
35240;DHT22;21376;50.954;4.716;2024-03-23T17:51:00;8.80;99.90
35240;DHT22;21376;50.954;4.716;2024-03-23T17:53:27;8.80;99.90
35240;DHT22;21376;50.954;4.716;2024-03-23T17:55:53;8.70;99.90
35240;DHT22;21376;50.954;4.716;2024-03-23T17:58:21;8.80;99.90
35240;DHT22;21376;50.954;4.716;2024-03-23T18:00:46;8.80;99.90
35240;DHT22;21376;50.954;4.716;2024-03-23T18:03:12;8.80;99.90
35240;DHT22;21376;50.954;4.716;2024-03-23T18:05:38;8.60;99.90
35240;DHT22;21376;50.954;4.716;2024-03-23T18:08:04;8.40;99.90
35240;DHT22;21376;50.954;4.716;2024-03-23T18:10:31;8.20;99.90
35240;DHT22;21376;50.954;4.716;2024-03-23T18:12:56;8.00;99.90
35240;DHT22;21376;50.954;4.716;2024-03-23T18:18:38;7.30;99.90
35240;DHT22;21376;50.954;4.716;2024-03-23T18:21:26;6.90;99.90
35240;DHT22;21376;50.954;4.716;2024-03-23T18:23:55;6.50;99.90
35240;DHT22;21376;50.954;4.716;2024-03-23T18:26:27;6.50;99.90
35240;DHT22;21376;50.954;4.716;2024-03-23T18:29:12;6.40;99.90
35240;DHT22;21376;50.954;4.716;2024-03-23T18:32:00;6.40;99.90
35240;DHT22;21376;50.954;4.716;2024-03-23T18:35:03;6.40;99.90